sensor_id;sensor_type;location;lat;lon;timestamp;pressure;altitude;pressure_sealevel;temperature;humidity
8705;BME280;4389;41.932;25.904;2024-02-15T00:01:25;-16302.66;;;8.80;100.00
8705;BME280;4389;41.932;25.904;2024-02-15T00:03:53;-16303.31;;;8.82;100.00
8705;BME280;4389;41.932;25.904;2024-02-15T00:06:21;-16301.59;;;8.76;100.00
8705;BME280;4389;41.932;25.904;2024-02-15T00:08:48;-16301.59;;;8.76;100.00
8705;BME280;4389;41.932;25.904;2024-02-15T00:11:17;-16300.66;;;8.72;100.00
8705;BME280;4389;41.932;25.904;2024-02-15T00:13:44;-16300.13;;;8.70;100.00
8705;BME280;4389;41.932;25.904;2024-02-15T00:16:13;-16299.19;;;8.67;100.00
8705;BME280;4389;41.932;25.904;2024-02-15T00:18:40;-16298.41;;;8.64;100.00
8705;BME280;4389;41.932;25.904;2024-02-15T00:21:07;-16299.31;;;8.67;100.00
8705;BME280;4389;41.932;25.904;2024-02-15T00:23:35;-16301.06;;;8.74;100.00
8705;BME280;4389;41.932;25.904;2024-02-15T00:26:02;-16300.25;;;8.71;100.00
8705;BME280;4389;41.932;25.904;2024-02-15T00:28:29;-16300.25;;;8.71;100.00
8705;BME280;4389;41.932;25.904;2024-02-15T00:30:56;-16300.78;;;8.73;100.00
8705;BME280;4389;41.932;25.904;2024-02-15T00:33:22;-16297.47;;;8.60;100.00
8705;BME280;4389;41.932;25.904;2024-02-15T00:35:49;-16298.66;;;8.65;100.00
8705;BME280;4389;41.932;25.904;2024-02-15T00:38:17;-16302.38;;;8.79;100.00
8705;BME280;4389;41.932;25.904;2024-02-15T00:40:46;-16302.38;;;8.79;100.00
8705;BME280;4389;41.932;25.904;2024-02-15T00:43:12;-16301.84;;;8.77;100.00
8705;BME280;4389;41.932;25.904;2024-02-15T00:45:39;-16299.84;;;8.69;100.00
8705;BME280;4389;41.932;25.904;2024-02-15T00:48:07;-16300.25;;;8.71;100.00
8705;BME280;4389;41.932;25.904;2024-02-15T00:50:33;-16296.41;;;8.56;100.00
8705;BME280;4389;41.932;25.904;2024-02-15T00:53:00;-16298.13;;;8.63;100.00
8705;BME280;4389;41.932;25.904;2024-02-15T00:55:27;-16298.00;;;8.62;100.00
8705;BME280;4389;41.932;25.904;2024-02-15T00:57:55;-16298.13;;;8.63;100.00
8705;BME280;4389;41.932;25.904;2024-02-15T01:00:23;-16296.00;;;8.55;100.00
8705;BME280;4389;41.932;25.904;2024-02-15T01:02:51;-16291.72;;;8.39;100.00
8705;BME280;4389;41.932;25.904;2024-02-15T01:05:18;-16291.19;;;8.37;100.00
8705;BME280;4389;41.932;25.904;2024-02-15T01:07:45;-16289.22;;;8.29;100.00
8705;BME280;4389;41.932;25.904;2024-02-15T01:10:14;-16290.66;;;8.35;100.00
8705;BME280;4389;41.932;25.904;2024-02-15T01:12:41;-16292.53;;;8.42;100.00
8705;BME280;4389;41.932;25.904;2024-02-15T01:15:10;-16288.69;;;8.27;100.00
8705;BME280;4389;41.932;25.904;2024-02-15T01:17:37;-16290.28;;;8.33;100.00
8705;BME280;4389;41.932;25.904;2024-02-15T01:20:04;-16291.47;;;8.38;100.00
8705;BME280;4389;41.932;25.904;2024-02-15T01:22:32;-16288.81;;;8.28;100.00
8705;BME280;4389;41.932;25.904;2024-02-15T01:24:59;-16290.28;;;8.33;100.00
8705;BME280;4389;41.932;25.904;2024-02-15T01:27:26;-16290.81;;;8.35;100.00
8705;BME280;4389;41.932;25.904;2024-02-15T01:29:55;-16290.66;;;8.35;100.00
8705;BME280;4389;41.932;25.904;2024-02-15T01:32:23;-16291.19;;;8.37;100.00
8705;BME280;4389;41.932;25.904;2024-02-15T01:34:50;-16287.75;;;8.24;100.00
8705;BME280;4389;41.932;25.904;2024-02-15T01:37:20;-16286.69;;;8.20;100.00
8705;BME280;4389;41.932;25.904;2024-02-15T01:39:47;-16286.94;;;8.21;100.00
8705;BME280;4389;41.932;25.904;2024-02-15T01:42:13;-16289.06;;;8.29;100.00
8705;BME280;4389;41.932;25.904;2024-02-15T01:44:41;-16288.94;;;8.28;100.00
8705;BME280;4389;41.932;25.904;2024-02-15T01:47:10;-16288.81;;;8.28;100.00
8705;BME280;4389;41.932;25.904;2024-02-15T01:49:39;-16288.53;;;8.27;100.00
8705;BME280;4389;41.932;25.904;2024-02-15T01:52:07;-16285.22;;;8.14;100.00
8705;BME280;4389;41.932;25.904;2024-02-15T01:54:35;-16287.47;;;8.23;100.00
8705;BME280;4389;41.932;25.904;2024-02-15T01:57:04;-16286.69;;;8.20;100.00
8705;BME280;4389;41.932;25.904;2024-02-15T01:59:31;-16284.69;;;8.12;100.00
8705;BME280;4389;41.932;25.904;2024-02-15T02:01:59;-16285.47;;;8.15;100.00
8705;BME280;4389;41.932;25.904;2024-02-15T02:04:25;-16285.06;;;8.14;100.00
8705;BME280;4389;41.932;25.904;2024-02-15T02:06:54;-16284.53;;;8.12;100.00
8705;BME280;4389;41.932;25.904;2024-02-15T02:09:24;-16284.00;;;8.10;100.00
8705;BME280;4389;41.932;25.904;2024-02-15T02:11:51;-16282.53;;;8.04;100.00
8705;BME280;4389;41.932;25.904;2024-02-15T02:14:18;-16282.41;;;8.04;100.00
8705;BME280;4389;41.932;25.904;2024-02-15T02:16:46;-16282.16;;;8.03;100.00
8705;BME280;4389;41.932;25.904;2024-02-15T02:19:13;-16282.28;;;8.03;100.00
8705;BME280;4389;41.932;25.904;2024-02-15T02:21:39;-16282.16;;;8.03;100.00
8705;BME280;4389;41.932;25.904;2024-02-15T02:24:12;-16282.41;;;8.04;100.00
8705;BME280;4389;41.932;25.904;2024-02-15T02:26:41;-16282.94;;;8.06;100.00
8705;BME280;4389;41.932;25.904;2024-02-15T02:29:08;-16281.63;;;8.01;100.00
8705;BME280;4389;41.932;25.904;2024-02-15T02:31:36;-16280.53;;;7.97;100.00
8705;BME280;4389;41.932;25.904;2024-02-15T02:34:03;-16280.28;;;7.96;100.00
8705;BME280;4389;41.932;25.904;2024-02-15T02:36:32;-16279.47;;;7.93;100.00
8705;BME280;4389;41.932;25.904;2024-02-15T02:38:58;-16280.53;;;7.97;100.00
8705;BME280;4389;41.932;25.904;2024-02-15T02:41:26;-16281.63;;;8.01;100.00
8705;BME280;4389;41.932;25.904;2024-02-15T02:43:56;-16281.75;;;8.01;100.00
8705;BME280;4389;41.932;25.904;2024-02-15T02:46:23;-16281.47;;;8.00;100.00
8705;BME280;4389;41.932;25.904;2024-02-15T02:48:51;-16280.28;;;7.96;100.00
8705;BME280;4389;41.932;25.904;2024-02-15T02:51:18;-16281.63;;;8.01;100.00
8705;BME280;4389;41.932;25.904;2024-02-15T02:53:45;-16284.28;;;8.11;100.00
8705;BME280;4389;41.932;25.904;2024-02-15T02:56:12;-16282.94;;;8.06;100.00
8705;BME280;4389;41.932;25.904;2024-02-15T02:58:39;-16283.47;;;8.08;100.00
8705;BME280;4389;41.932;25.904;2024-02-15T03:01:09;-16281.88;;;8.02;100.00
8705;BME280;4389;41.932;25.904;2024-02-15T03:03:36;-16280.81;;;7.98;100.00
8705;BME280;4389;41.932;25.904;2024-02-15T03:06:05;-16279.75;;;7.94;100.00
8705;BME280;4389;41.932;25.904;2024-02-15T03:08:32;-16278.69;;;7.90;100.00
8705;BME280;4389;41.932;25.904;2024-02-15T03:10:59;-16278.94;;;7.91;100.00
8705;BME280;4389;41.932;25.904;2024-02-15T03:13:26;-16278.81;;;7.90;100.00
8705;BME280;4389;41.932;25.904;2024-02-15T03:15:53;-16277.47;;;7.85;100.00
8705;BME280;4389;41.932;25.904;2024-02-15T03:18:21;-16278.81;;;7.90;100.00
8705;BME280;4389;41.932;25.904;2024-02-15T03:20:49;-16278.00;;;7.87;100.00
8705;BME280;4389;41.932;25.904;2024-02-15T03:23:16;-16277.22;;;7.84;100.00
8705;BME280;4389;41.932;25.904;2024-02-15T03:25:43;-16278.16;;;7.88;100.00
8705;BME280;4389;41.932;25.904;2024-02-15T03:28:10;-16279.75;;;7.94;100.00
8705;BME280;4389;41.932;25.904;2024-02-15T03:30:37;-16278.94;;;7.91;100.00
8705;BME280;4389;41.932;25.904;2024-02-15T03:33:04;-16279.75;;;7.94;100.00
8705;BME280;4389;41.932;25.904;2024-02-15T03:35:32;-16278.41;;;7.89;100.00
8705;BME280;4389;41.932;25.904;2024-02-15T03:37:59;-16278.94;;;7.91;100.00
8705;BME280;4389;41.932;25.904;2024-02-15T03:40:26;-16278.41;;;7.89;100.00
8705;BME280;4389;41.932;25.904;2024-02-15T03:42:54;-16277.34;;;7.85;100.00
8705;BME280;4389;41.932;25.904;2024-02-15T03:45:21;-16277.88;;;7.87;100.00
8705;BME280;4389;41.932;25.904;2024-02-15T03:47:51;-16277.63;;;7.86;100.00
8705;BME280;4389;41.932;25.904;2024-02-15T03:50:18;-16278.94;;;7.91;100.00
8705;BME280;4389;41.932;25.904;2024-02-15T03:52:47;-16277.63;;;7.86;100.00
8705;BME280;4389;41.932;25.904;2024-02-15T03:55:14;-16276.81;;;7.83;100.00
8705;BME280;4389;41.932;25.904;2024-02-15T03:57:41;-16276.28;;;7.81;100.00
8705;BME280;4389;41.932;25.904;2024-02-15T04:00:09;-16273.88;;;7.72;100.00
8705;BME280;4389;41.932;25.904;2024-02-15T04:02:38;-16274.41;;;7.74;100.00
8705;BME280;4389;41.932;25.904;2024-02-15T04:05:07;-16274.94;;;7.76;100.00
8705;BME280;4389;41.932;25.904;2024-02-15T04:07:34;-16274.16;;;7.73;100.00
8705;BME280;4389;41.932;25.904;2024-02-15T04:10:05;-16274.16;;;7.73;100.00
8705;BME280;4389;41.932;25.904;2024-02-15T04:12:33;-16272.81;;;7.68;100.00
8705;BME280;4389;41.932;25.904;2024-02-15T04:15:00;-16273.09;;;7.69;100.00
8705;BME280;4389;41.932;25.904;2024-02-15T04:17:31;-16272.56;;;7.67;100.00
8705;BME280;4389;41.932;25.904;2024-02-15T04:20:00;-16272.56;;;7.67;100.00
8705;BME280;4389;41.932;25.904;2024-02-15T04:22:29;-16273.22;;;7.69;100.00
8705;BME280;4389;41.932;25.904;2024-02-15T04:24:57;-16270.81;;;7.60;100.00
8705;BME280;4389;41.932;25.904;2024-02-15T04:27:25;-16269.91;;;7.57;100.00
8705;BME280;4389;41.932;25.904;2024-02-15T04:29:52;-16270.69;;;7.60;100.00
8705;BME280;4389;41.932;25.904;2024-02-15T04:32:21;-16267.91;;;7.49;100.00
8705;BME280;4389;41.932;25.904;2024-02-15T04:34:48;-16266.44;;;7.44;100.00
8705;BME280;4389;41.932;25.904;2024-02-15T04:37:15;-16266.97;;;7.46;100.00
8705;BME280;4389;41.932;25.904;2024-02-15T04:39:42;-16266.97;;;7.46;100.00
8705;BME280;4389;41.932;25.904;2024-02-15T04:42:09;-16265.38;;;7.40;100.00
8705;BME280;4389;41.932;25.904;2024-02-15T04:44:39;-16264.69;;;7.37;100.00
8705;BME280;4389;41.932;25.904;2024-02-15T04:47:06;-16265.63;;;7.41;100.00
8705;BME280;4389;41.932;25.904;2024-02-15T04:49:34;-16265.50;;;7.40;100.00
8705;BME280;4389;41.932;25.904;2024-02-15T04:52:04;-16264.97;;;7.38;100.00
8705;BME280;4389;41.932;25.904;2024-02-15T04:54:32;-16264.84;;;7.38;100.00
8705;BME280;4389;41.932;25.904;2024-02-15T04:56:59;-16264.56;;;7.37;100.00
8705;BME280;4389;41.932;25.904;2024-02-15T04:59:26;-16264.84;;;7.38;100.00
8705;BME280;4389;41.932;25.904;2024-02-15T05:01:56;-16264.69;;;7.37;100.00
8705;BME280;4389;41.932;25.904;2024-02-15T05:04:22;-16265.63;;;7.41;100.00
8705;BME280;4389;41.932;25.904;2024-02-15T05:06:50;-16264.56;;;7.37;100.00
8705;BME280;4389;41.932;25.904;2024-02-15T05:09:16;-16263.91;;;7.34;100.00
8705;BME280;4389;41.932;25.904;2024-02-15T05:11:44;-16262.84;;;7.30;100.00
8705;BME280;4389;41.932;25.904;2024-02-15T05:14:13;-16262.97;;;7.31;100.00
8705;BME280;4389;41.932;25.904;2024-02-15T05:16:45;-16261.38;;;7.25;100.00
8705;BME280;4389;41.932;25.904;2024-02-15T05:19:14;-16261.63;;;7.26;100.00
8705;BME280;4389;41.932;25.904;2024-02-15T05:21:42;-16260.16;;;7.20;100.00
8705;BME280;4389;41.932;25.904;2024-02-15T05:24:10;-16260.97;;;7.23;100.00
8705;BME280;4389;41.932;25.904;2024-02-15T05:26:39;-16261.63;;;7.26;100.00
8705;BME280;4389;41.932;25.904;2024-02-15T05:29:08;-16264.56;;;7.37;100.00
8705;BME280;4389;41.932;25.904;2024-02-15T05:31:35;-16263.50;;;7.33;100.00
8705;BME280;4389;41.932;25.904;2024-02-15T05:34:04;-16262.97;;;7.31;100.00
8705;BME280;4389;41.932;25.904;2024-02-15T05:36:34;-16263.63;;;7.33;100.00
8705;BME280;4389;41.932;25.904;2024-02-15T05:39:01;-16264.44;;;7.36;100.00
8705;BME280;4389;41.932;25.904;2024-02-15T05:41:29;-16265.63;;;7.41;100.00
8705;BME280;4389;41.932;25.904;2024-02-15T05:43:57;-16262.97;;;7.31;100.00
8705;BME280;4389;41.932;25.904;2024-02-15T05:46:25;-16262.69;;;7.30;100.00
8705;BME280;4389;41.932;25.904;2024-02-15T05:48:53;-16262.16;;;7.28;100.00
8705;BME280;4389;41.932;25.904;2024-02-15T05:51:21;-16264.56;;;7.37;100.00
8705;BME280;4389;41.932;25.904;2024-02-15T05:53:50;-16262.31;;;7.28;100.00
8705;BME280;4389;41.932;25.904;2024-02-15T05:56:19;-16263.38;;;7.32;100.00
8705;BME280;4389;41.932;25.904;2024-02-15T05:58:46;-16265.91;;;7.42;100.00
8705;BME280;4389;41.932;25.904;2024-02-15T06:01:13;-16271.22;;;7.62;100.00
8705;BME280;4389;41.932;25.904;2024-02-15T06:03:40;-16271.34;;;7.62;100.00
8705;BME280;4389;41.932;25.904;2024-02-15T06:06:09;-16271.75;;;7.64;100.00
8705;BME280;4389;41.932;25.904;2024-02-15T06:08:37;-16273.09;;;7.69;100.00
8705;BME280;4389;41.932;25.904;2024-02-15T06:11:05;-16273.75;;;7.71;100.00
8705;BME280;4389;41.932;25.904;2024-02-15T06:13:33;-16276.28;;;7.81;99.91
8705;BME280;4389;41.932;25.904;2024-02-15T06:16:00;-16275.47;;;7.78;99.11
8705;BME280;4389;41.932;25.904;2024-02-15T06:18:28;-16274.41;;;7.74;100.00
8705;BME280;4389;41.932;25.904;2024-02-15T06:20:57;-16273.88;;;7.72;100.00
8705;BME280;4389;41.932;25.904;2024-02-15T06:23:25;-16270.44;;;7.59;100.00
8705;BME280;4389;41.932;25.904;2024-02-15T06:25:53;-16271.22;;;7.62;100.00
8705;BME280;4389;41.932;25.904;2024-02-15T06:28:21;-16275.47;;;7.78;100.00
8705;BME280;4389;41.932;25.904;2024-02-15T06:31:02;-16277.63;;;7.86;99.11
8705;BME280;4389;41.932;25.904;2024-02-15T06:33:47;-16283.22;;;8.07;97.61
8705;BME280;4389;41.932;25.904;2024-02-15T06:36:31;-16284.69;;;8.12;98.04
8705;BME280;4389;41.932;25.904;2024-02-15T06:39:16;-16288.81;;;8.28;97.50
8705;BME280;4389;41.932;25.904;2024-02-15T06:42:00;-16293.59;;;8.46;96.08
8705;BME280;4389;41.932;25.904;2024-02-15T06:44:29;-16292.13;;;8.40;95.32
8705;BME280;4389;41.932;25.904;2024-02-15T06:46:56;-16296.78;;;8.58;95.62
8705;BME280;4389;41.932;25.904;2024-02-15T06:49:23;-16298.25;;;8.63;95.70
8705;BME280;4389;41.932;25.904;2024-02-15T06:51:51;-16297.47;;;8.60;95.82
8705;BME280;4389;41.932;25.904;2024-02-15T06:54:18;-16299.47;;;8.68;95.59
8705;BME280;4389;41.932;25.904;2024-02-15T06:56:45;-16301.31;;;8.75;95.05
8705;BME280;4389;41.932;25.904;2024-02-15T06:59:13;-16307.03;;;8.96;94.33
8705;BME280;4389;41.932;25.904;2024-02-15T07:01:42;-16307.03;;;8.96;91.81
8705;BME280;4389;41.932;25.904;2024-02-15T07:04:09;-16308.09;;;9.00;89.68
8705;BME280;4389;41.932;25.904;2024-02-15T07:06:37;-16316.22;;;9.30;89.48
8705;BME280;4389;41.932;25.904;2024-02-15T07:09:05;-16323.69;;;9.58;88.93
8705;BME280;4389;41.932;25.904;2024-02-15T07:11:33;-16329.25;;;9.79;85.88
8705;BME280;4389;41.932;25.904;2024-02-15T07:14:00;-16326.22;;;9.68;85.41
8705;BME280;4389;41.932;25.904;2024-02-15T07:16:27;-16327.94;;;9.74;85.46
8705;BME280;4389;41.932;25.904;2024-02-15T07:18:57;-16308.50;;;9.01;82.23
8705;BME280;4389;41.932;25.904;2024-02-15T07:21:25;-16315.16;;;9.26;80.46
8705;BME280;4389;41.932;25.904;2024-02-15T07:23:53;-16310.63;;;9.09;78.99
8705;BME280;4389;41.932;25.904;2024-02-15T07:26:20;-16312.22;;;9.15;79.36
8705;BME280;4389;41.932;25.904;2024-02-15T07:28:50;-16313.84;;;9.21;78.44
8705;BME280;4389;41.932;25.904;2024-02-15T07:31:18;-16311.16;;;9.11;76.16
8705;BME280;4389;41.932;25.904;2024-02-15T07:33:47;-16307.44;;;8.97;78.20
8705;BME280;4389;41.932;25.904;2024-02-15T07:36:18;-16313.03;;;9.18;78.39
8705;BME280;4389;41.932;25.904;2024-02-15T07:38:47;-16309.84;;;9.06;78.34
8705;BME280;4389;41.932;25.904;2024-02-15T07:41:14;-16307.72;;;8.98;77.82
8705;BME280;4389;41.932;25.904;2024-02-15T07:43:41;-16307.19;;;8.96;77.78
8705;BME280;4389;41.932;25.904;2024-02-15T07:46:11;-16316.50;;;9.31;76.82
8705;BME280;4389;41.932;25.904;2024-02-15T07:48:39;-16317.81;;;9.36;75.24
8705;BME280;4389;41.932;25.904;2024-02-15T07:51:11;-16317.56;;;9.35;75.96
8705;BME280;4389;41.932;25.904;2024-02-15T07:53:39;-16326.06;;;9.67;75.87
8705;BME280;4389;41.932;25.904;2024-02-15T07:56:06;-16322.59;;;9.54;75.54
8705;BME280;4389;41.932;25.904;2024-02-15T07:58:33;-16327.66;;;9.73;74.70
8705;BME280;4389;41.932;25.904;2024-02-15T08:01:00;-16332.19;;;9.90;73.92
8705;BME280;4389;41.932;25.904;2024-02-15T08:03:27;-16334.06;;;9.97;72.73
8705;BME280;4389;41.932;25.904;2024-02-15T08:05:55;-16334.44;;;9.99;73.21
8705;BME280;4389;41.932;25.904;2024-02-15T08:08:22;-16333.25;;;9.94;73.38
8705;BME280;4389;41.932;25.904;2024-02-15T08:10:50;-16335.66;;;10.03;74.69
8705;BME280;4389;41.932;25.904;2024-02-15T08:13:18;-16340.97;;;10.23;73.94
8705;BME280;4389;41.932;25.904;2024-02-15T08:15:48;-16344.44;;;10.36;72.95
8705;BME280;4389;41.932;25.904;2024-02-15T08:18:18;-16341.25;;;10.24;70.37
8705;BME280;4389;41.932;25.904;2024-02-15T08:20:45;-16339.66;;;10.18;70.59
8705;BME280;4389;41.932;25.904;2024-02-15T08:23:12;-16340.72;;;10.22;71.94
8705;BME280;4389;41.932;25.904;2024-02-15T08:25:39;-16333.13;;;9.94;72.52
8705;BME280;4389;41.932;25.904;2024-02-15T08:28:08;-16331.66;;;9.88;73.38
8705;BME280;4389;41.932;25.904;2024-02-15T08:30:36;-16339.91;;;10.19;73.15
8705;BME280;4389;41.932;25.904;2024-02-15T08:33:04;-16347.91;;;10.49;71.10
8705;BME280;4389;41.932;25.904;2024-02-15T08:35:30;-16348.28;;;10.51;70.60
8705;BME280;4389;41.932;25.904;2024-02-15T08:37:58;-16351.63;;;10.63;69.83
8705;BME280;4389;41.932;25.904;2024-02-15T08:40:25;-16351.63;;;10.63;69.48
8705;BME280;4389;41.932;25.904;2024-02-15T08:42:53;-16353.59;;;10.71;70.16
8705;BME280;4389;41.932;25.904;2024-02-15T08:45:22;-16348.81;;;10.53;69.00
8705;BME280;4389;41.932;25.904;2024-02-15T08:47:50;-16340.03;;;10.20;70.93
8705;BME280;4389;41.932;25.904;2024-02-15T08:50:18;-16344.44;;;10.36;70.35
8705;BME280;4389;41.932;25.904;2024-02-15T08:52:48;-16351.88;;;10.64;70.26
8705;BME280;4389;41.932;25.904;2024-02-15T08:55:15;-16357.47;;;10.85;67.82
8705;BME280;4389;41.932;25.904;2024-02-15T08:57:43;-16350.28;;;10.58;66.82
8705;BME280;4389;41.932;25.904;2024-02-15T09:00:11;-16347.91;;;10.49;66.07
8705;BME280;4389;41.932;25.904;2024-02-15T09:02:43;-16351.34;;;10.62;65.99
8705;BME280;4389;41.932;25.904;2024-02-15T09:05:10;-16352.00;;;10.65;66.48
8705;BME280;4389;41.932;25.904;2024-02-15T09:07:39;-16357.06;;;10.84;65.91
8705;BME280;4389;41.932;25.904;2024-02-15T09:10:11;-16358.25;;;10.88;64.37
8705;BME280;4389;41.932;25.904;2024-02-15T09:12:39;-16357.19;;;10.84;65.02
8705;BME280;4389;41.932;25.904;2024-02-15T09:15:07;-16350.03;;;10.57;63.36
8705;BME280;4389;41.932;25.904;2024-02-15T09:17:34;-16353.75;;;10.71;65.73
8705;BME280;4389;41.932;25.904;2024-02-15T09:20:07;-16354.53;;;10.74;63.77
8705;BME280;4389;41.932;25.904;2024-02-15T09:22:39;-16357.19;;;10.84;65.00
8705;BME280;4389;41.932;25.904;2024-02-15T09:25:08;-16358.78;;;10.90;63.81
8705;BME280;4389;41.932;25.904;2024-02-15T09:27:35;-16359.34;;;10.92;63.90
8705;BME280;4389;41.932;25.904;2024-02-15T09:30:02;-16360.13;;;10.95;62.55
8705;BME280;4389;41.932;25.904;2024-02-15T09:32:33;-16359.88;;;10.94;61.74
8705;BME280;4389;41.932;25.904;2024-02-15T09:35:01;-16362.00;;;11.02;62.58
8705;BME280;4389;41.932;25.904;2024-02-15T09:37:29;-16366.50;;;11.19;60.56
8705;BME280;4389;41.932;25.904;2024-02-15T09:39:58;-16369.16;;;11.29;60.54
8705;BME280;4389;41.932;25.904;2024-02-15T09:42:30;-16374.88;;;11.51;60.13
8705;BME280;4389;41.932;25.904;2024-02-15T09:44:59;-16373.03;;;11.44;58.46
8705;BME280;4389;41.932;25.904;2024-02-15T09:47:30;-16372.63;;;11.42;58.82
8705;BME280;4389;41.932;25.904;2024-02-15T09:49:59;-16372.63;;;11.42;58.55
8705;BME280;4389;41.932;25.904;2024-02-15T09:52:28;-16371.81;;;11.39;58.58
8705;BME280;4389;41.932;25.904;2024-02-15T09:54:57;-16380.59;;;11.72;59.16
8705;BME280;4389;41.932;25.904;2024-02-15T09:57:25;-16375.81;;;11.54;57.52
8705;BME280;4389;41.932;25.904;2024-02-15T09:59:54;-16379.81;;;11.69;57.94
8705;BME280;4389;41.932;25.904;2024-02-15T10:02:20;-16382.19;;;11.78;56.85
8705;BME280;4389;41.932;25.904;2024-02-15T10:04:48;-16385.25;;;11.90;55.71
8705;BME280;4389;41.932;25.904;2024-02-15T10:07:16;-16388.06;;;12.00;57.25
8705;BME280;4389;41.932;25.904;2024-02-15T10:09:45;-16387.53;;;11.98;57.12
8705;BME280;4389;41.932;25.904;2024-02-15T10:12:12;-16382.34;;;11.79;58.11
8705;BME280;4389;41.932;25.904;2024-02-15T10:14:38;-16385.53;;;11.91;57.18
8705;BME280;4389;41.932;25.904;2024-02-15T10:17:15;-16387.78;;;11.99;56.90
8705;BME280;4389;41.932;25.904;2024-02-15T10:19:43;-16386.44;;;11.94;57.37
8705;BME280;4389;41.932;25.904;2024-02-15T10:22:12;-16385.41;;;11.90;57.57
8705;BME280;4389;41.932;25.904;2024-02-15T10:24:41;-16385.13;;;11.89;57.20
8705;BME280;4389;41.932;25.904;2024-02-15T10:27:09;-16388.84;;;12.03;58.85
8705;BME280;4389;41.932;25.904;2024-02-15T10:29:36;-16392.97;;;12.19;57.25
8705;BME280;4389;41.932;25.904;2024-02-15T10:32:06;-16397.63;;;12.36;56.71
8705;BME280;4389;41.932;25.904;2024-02-15T10:34:43;-16391.25;;;12.12;56.76
8705;BME280;4389;41.932;25.904;2024-02-15T10:37:11;-16389.38;;;12.05;56.34
8705;BME280;4389;41.932;25.904;2024-02-15T10:39:38;-16384.59;;;11.87;56.25
8705;BME280;4389;41.932;25.904;2024-02-15T10:42:06;-16379.69;;;11.69;57.68
8705;BME280;4389;41.932;25.904;2024-02-15T10:44:37;-16375.03;;;11.51;58.02
8705;BME280;4389;41.932;25.904;2024-02-15T10:47:06;-16369.16;;;11.29;59.54
8705;BME280;4389;41.932;25.904;2024-02-15T10:49:34;-16372.38;;;11.41;60.30
8705;BME280;4389;41.932;25.904;2024-02-15T10:52:03;-16372.09;;;11.40;59.82
8705;BME280;4389;41.932;25.904;2024-02-15T10:54:41;-16375.81;;;11.54;58.67
8705;BME280;4389;41.932;25.904;2024-02-15T10:57:10;-16380.34;;;11.71;58.19
8705;BME280;4389;41.932;25.904;2024-02-15T10:59:43;-16384.06;;;11.85;57.47
8705;BME280;4389;41.932;25.904;2024-02-15T11:02:26;-16385.00;;;11.89;56.81
8705;BME280;4389;41.932;25.904;2024-02-15T11:04:56;-16385.91;;;11.92;55.79
8705;BME280;4389;41.932;25.904;2024-02-15T11:07:28;-16389.50;;;12.06;56.88
8705;BME280;4389;41.932;25.904;2024-02-15T11:09:55;-16389.25;;;12.05;56.60
8705;BME280;4389;41.932;25.904;2024-02-15T11:12:24;-16394.44;;;12.24;57.49
8705;BME280;4389;41.932;25.904;2024-02-15T11:14:52;-16396.16;;;12.31;57.03
8705;BME280;4389;41.932;25.904;2024-02-15T11:17:46;-16399.06;;;12.42;57.40
8705;BME280;4389;41.932;25.904;2024-02-15T11:20:46;-16399.88;;;12.45;55.67
8705;BME280;4389;41.932;25.904;2024-02-15T11:23:27;-16393.09;;;12.19;55.60
8705;BME280;4389;41.932;25.904;2024-02-15T11:25:56;-16392.56;;;12.17;55.27
8705;BME280;4389;41.932;25.904;2024-02-15T11:28:43;-16398.81;;;12.41;55.24
8705;BME280;4389;41.932;25.904;2024-02-15T11:31:54;-16401.59;;;12.51;54.19
8705;BME280;4389;41.932;25.904;2024-02-15T11:34:43;-16402.94;;;12.56;54.96
8705;BME280;4389;41.932;25.904;2024-02-15T11:37:53;-16406.38;;;12.69;53.13
8705;BME280;4389;41.932;25.904;2024-02-15T11:40:22;-16407.97;;;12.75;53.09
8705;BME280;4389;41.932;25.904;2024-02-15T11:42:50;-16410.38;;;12.84;53.61
8705;BME280;4389;41.932;25.904;2024-02-15T11:45:18;-16407.72;;;12.74;52.83
8705;BME280;4389;41.932;25.904;2024-02-15T11:47:52;-16406.91;;;12.71;53.65
8705;BME280;4389;41.932;25.904;2024-02-15T11:50:21;-16404.78;;;12.63;53.01
8705;BME280;4389;41.932;25.904;2024-02-15T11:52:49;-16402.94;;;12.56;51.76
8705;BME280;4389;41.932;25.904;2024-02-15T11:55:20;-16409.19;;;12.80;52.26
8705;BME280;4389;41.932;25.904;2024-02-15T11:57:56;-16420.47;;;13.22;52.56
8705;BME280;4389;41.932;25.904;2024-02-15T12:00:28;-16426.03;;;13.43;51.63
8705;BME280;4389;41.932;25.904;2024-02-15T12:03:15;-16421.53;;;13.26;50.98
8705;BME280;4389;41.932;25.904;2024-02-15T12:06:00;-16417.28;;;13.10;50.19
8705;BME280;4389;41.932;25.904;2024-02-15T12:08:45;-16418.09;;;13.13;51.53
8705;BME280;4389;41.932;25.904;2024-02-15T12:11:29;-16421.28;;;13.25;50.97
8705;BME280;4389;41.932;25.904;2024-02-15T12:14:14;-16428.31;;;13.52;50.88
8705;BME280;4389;41.932;25.904;2024-02-15T12:17:00;-16428.69;;;13.53;49.79
8705;BME280;4389;41.932;25.904;2024-02-15T12:19:47;-16427.38;;;13.48;49.98
8705;BME280;4389;41.932;25.904;2024-02-15T12:22:16;-16429.63;;;13.57;50.42
8705;BME280;4389;41.932;25.904;2024-02-15T12:24:43;-16432.97;;;13.69;48.68
8705;BME280;4389;41.932;25.904;2024-02-15T12:27:10;-16441.72;;;14.02;48.48
8705;BME280;4389;41.932;25.904;2024-02-15T12:29:37;-16439.06;;;13.92;48.54
8705;BME280;4389;41.932;25.904;2024-02-15T12:32:04;-16434.00;;;13.73;49.18
8705;BME280;4389;41.932;25.904;2024-02-15T12:34:31;-16435.06;;;13.77;49.24
8705;BME280;4389;41.932;25.904;2024-02-15T12:37:06;-16441.97;;;14.03;49.12
8705;BME280;4389;41.932;25.904;2024-02-15T12:39:34;-16439.06;;;13.92;49.36
8705;BME280;4389;41.932;25.904;2024-02-15T12:42:02;-16439.84;;;13.95;48.45
8705;BME280;4389;41.932;25.904;2024-02-15T12:44:29;-16434.81;;;13.76;49.24
8705;BME280;4389;41.932;25.904;2024-02-15T12:46:59;-16432.16;;;13.66;49.36
8705;BME280;4389;41.932;25.904;2024-02-15T12:49:29;-16432.16;;;13.66;49.46
8705;BME280;4389;41.932;25.904;2024-02-15T12:52:36;-16431.34;;;13.63;49.82
8705;BME280;4389;41.932;25.904;2024-02-15T12:55:11;-16432.56;;;13.68;49.44
8705;BME280;4389;41.932;25.904;2024-02-15T12:57:39;-16430.84;;;13.61;48.77
8705;BME280;4389;41.932;25.904;2024-02-15T13:00:11;-16428.31;;;13.52;49.97
8705;BME280;4389;41.932;25.904;2024-02-15T13:02:44;-16424.44;;;13.37;50.31
8705;BME280;4389;41.932;25.904;2024-02-15T13:05:11;-16425.53;;;13.41;50.43
8705;BME280;4389;41.932;25.904;2024-02-15T13:07:40;-16422.59;;;13.30;50.72
8705;BME280;4389;41.932;25.904;2024-02-15T13:10:08;-16423.00;;;13.32;50.94
8705;BME280;4389;41.932;25.904;2024-02-15T13:12:36;-16427.38;;;13.48;50.29
8705;BME280;4389;41.932;25.904;2024-02-15T13:15:04;-16423.25;;;13.33;49.86